createdAt,value
2023-03-08T00:02:03.173Z,6.45
2023-03-08T00:04:48.913Z,6.70
2023-03-08T00:07:34.852Z,5.80
2023-03-08T00:10:20.600Z,5.95
2023-03-08T00:13:06.015Z,5.68
2023-03-08T00:15:53.056Z,5.45
2023-03-08T00:18:48.932Z,6.05
2023-03-08T00:21:34.606Z,6.10
2023-03-08T00:24:19.950Z,5.65
2023-03-08T00:27:08.544Z,4.60
2023-03-08T00:29:54.241Z,2.78
2023-03-08T00:32:39.873Z,2.88
2023-03-08T00:35:25.646Z,1.77
2023-03-08T00:38:10.935Z,1.80
2023-03-08T00:40:56.973Z,1.90
2023-03-08T00:43:48.246Z,1.55
2023-03-08T00:46:33.901Z,1.45
2023-03-08T00:49:19.151Z,1.52
2023-03-08T00:52:04.736Z,1.08
2023-03-08T00:54:53.260Z,1.17
2023-03-08T00:57:38.598Z,2.33
2023-03-08T01:00:24.194Z,2.10
2023-03-08T01:03:09.820Z,2.50
2023-03-08T01:05:57.274Z,3.47
2023-03-08T01:08:43.504Z,4.10
2023-03-08T01:11:35.512Z,3.75
2023-03-08T01:14:20.875Z,3.67
2023-03-08T01:17:06.445Z,3.28
2023-03-08T01:19:52.358Z,3.28
2023-03-08T01:22:37.583Z,3.15
2023-03-08T01:25:22.725Z,3.45
2023-03-08T01:28:09.352Z,3.20
2023-03-08T01:30:54.872Z,3.45
2023-03-08T01:33:40.627Z,2.83
2023-03-08T01:36:28.894Z,3.20
2023-03-08T01:39:17.161Z,3.33
2023-03-08T01:42:07.248Z,4.18
2023-03-08T01:45:05.125Z,3.67
2023-03-08T01:47:52.009Z,3.30
2023-03-08T01:50:45.606Z,3.50
2023-03-08T01:53:32.857Z,3.60
2023-03-08T01:56:20.179Z,3.80
2023-03-08T01:59:08.761Z,3.53
2023-03-08T02:01:55.085Z,3.50
2023-03-08T02:04:41.550Z,3.42
2023-03-08T02:07:30.208Z,3.78
2023-03-08T02:10:17.301Z,3.83
2023-03-08T02:13:08.577Z,4.55
2023-03-08T02:16:00.721Z,4.80
2023-03-08T02:19:01.727Z,5.55
2023-03-08T02:21:47.176Z,5.90
2023-03-08T02:24:32.785Z,6.20
2023-03-08T02:27:24.847Z,6.75
2023-03-08T02:30:12.353Z,6.95
2023-03-08T02:32:58.072Z,9.00
2023-03-08T02:35:47.261Z,9.98
2023-03-08T02:38:32.762Z,8.75
2023-03-08T02:41:18.416Z,10.18
2023-03-08T02:44:06.929Z,10.02
2023-03-08T02:46:54.191Z,10.48
2023-03-08T02:49:39.874Z,12.45
2023-03-08T02:52:30.421Z,12.57
2023-03-08T02:55:15.846Z,14.90
2023-03-08T02:58:01.623Z,15.75
2023-03-08T03:00:46.970Z,16.80
2023-03-08T03:03:33.042Z,17.42
2023-03-08T03:06:20.391Z,18.58
2023-03-08T03:09:10.202Z,18.45
2023-03-08T03:11:56.054Z,19.95
2023-03-08T03:14:42.216Z,17.15
2023-03-08T03:17:28.810Z,18.08
2023-03-08T03:20:20.264Z,19.15
2023-03-08T03:23:06.583Z,20.10
2023-03-08T03:26:12.117Z,21.77
2023-03-08T03:28:58.888Z,24.80
2023-03-08T03:31:51.105Z,23.10
2023-03-08T03:34:42.319Z,28.63
2023-03-08T03:37:28.373Z,28.20
2023-03-08T03:40:41.872Z,26.45
2023-03-08T03:43:35.616Z,26.20
2023-03-08T03:46:23.098Z,27.98
2023-03-08T03:49:11.390Z,30.67
2023-03-08T03:52:00.539Z,30.95
2023-03-08T03:54:54.169Z,30.20
2023-03-08T03:57:39.987Z,32.22
2023-03-08T04:00:29.032Z,32.67
2023-03-08T04:03:26.447Z,35.17
2023-03-08T04:06:14.921Z,37.33
2023-03-08T04:09:06.780Z,35.85
2023-03-08T04:12:02.591Z,37.47
2023-03-08T04:14:48.602Z,35.28
2023-03-08T04:17:35.671Z,38.25
2023-03-08T04:20:21.751Z,41.80
2023-03-08T04:23:12.937Z,42.63
2023-03-08T04:26:01.676Z,42.38
2023-03-08T04:28:47.738Z,46.60
2023-03-08T04:31:38.033Z,45.53
2023-03-08T04:34:27.831Z,45.97
2023-03-08T04:37:14.136Z,46.80
2023-03-08T04:40:03.696Z,48.17
2023-03-08T04:42:51.691Z,47.65
2023-03-08T04:45:43.374Z,48.83
2023-03-08T04:48:31.481Z,50.20
2023-03-08T04:51:17.214Z,47.92
2023-03-08T04:54:05.886Z,49.63
2023-03-08T04:56:54.362Z,51.05
2023-03-08T04:59:45.984Z,52.08
2023-03-08T05:02:33.691Z,50.60
2023-03-08T05:05:20.903Z,51.65
2023-03-08T05:08:06.897Z,49.38
2023-03-08T05:11:01.039Z,52.05
2023-03-08T05:13:49.883Z,58.05
2023-03-08T05:16:36.275Z,51.33
2023-03-08T05:19:22.727Z,53.58
2023-03-08T05:22:10.714Z,52.80
2023-03-08T05:25:01.745Z,53.95
2023-03-08T05:27:49.722Z,57.78
2023-03-08T05:30:39.201Z,54.65
2023-03-08T05:33:24.701Z,54.90
2023-03-08T05:36:12.321Z,55.03
2023-03-08T05:39:00.371Z,57.38
2023-03-08T05:41:54.716Z,54.05
2023-03-08T05:44:46.278Z,53.85
2023-03-08T05:47:34.712Z,54.25
2023-03-08T05:50:28.063Z,53.92
2023-03-08T05:53:16.998Z,53.05
2023-03-08T05:56:17.204Z,53.30
2023-03-08T05:59:09.063Z,54.25
2023-03-08T06:01:55.208Z,51.83
2023-03-08T06:05:03.916Z,54.10
2023-03-08T06:07:50.178Z,55.50
2023-03-08T06:10:43.092Z,57.92
2023-03-08T06:13:30.786Z,62.08
2023-03-08T06:16:16.883Z,68.05
2023-03-08T06:19:02.704Z,68.63
2023-03-08T06:21:49.425Z,60.85
2023-03-08T06:24:40.694Z,61.63
2023-03-08T06:27:27.904Z,65.20
2023-03-08T06:30:20.168Z,62.75
2023-03-08T06:33:05.933Z,63.10
2023-03-08T06:36:02.802Z,63.40
2023-03-08T06:38:52.570Z,56.55
2023-03-08T06:41:38.093Z,58.70
2023-03-08T06:44:24.988Z,59.33
2023-03-08T06:47:10.399Z,60.25
2023-03-08T06:49:55.699Z,57.88
2023-03-08T06:52:41.290Z,58.10
2023-03-08T06:55:27.647Z,56.58
2023-03-08T06:58:13.758Z,59.53
2023-03-08T07:01:00.078Z,59.13
2023-03-08T07:03:46.549Z,63.85
2023-03-08T07:06:31.797Z,57.78
2023-03-08T07:09:17.140Z,58.13
2023-03-08T07:12:02.915Z,56.10
2023-03-08T07:14:48.533Z,57.03
2023-03-08T07:17:35.620Z,56.85
2023-03-08T07:20:21.627Z,54.13
2023-03-08T07:23:07.069Z,56.28
2023-03-08T07:25:56.258Z,54.10
2023-03-08T07:28:47.893Z,55.80
2023-03-08T07:31:36.281Z,55.15
2023-03-08T07:34:22.122Z,52.65
2023-03-08T07:37:15.157Z,54.00
2023-03-08T07:40:00.940Z,56.70
2023-03-08T07:42:46.895Z,54.17
2023-03-08T07:45:46.972Z,53.55
2023-03-08T07:48:55.295Z,51.03
2023-03-08T07:51:44.085Z,49.88
2023-03-08T07:54:32.077Z,50.28
2023-03-08T07:57:20.714Z,48.53
2023-03-08T08:00:10.042Z,49.85
2023-03-08T08:02:58.460Z,44.72
2023-03-08T08:05:44.863Z,45.72
2023-03-08T08:08:30.819Z,44.63
2023-03-08T08:11:17.898Z,42.50
2023-03-08T08:14:05.004Z,40.38
2023-03-08T08:16:50.506Z,42.15
2023-03-08T08:19:37.198Z,40.88
2023-03-08T08:22:22.445Z,42.55
2023-03-08T08:25:08.752Z,42.67
2023-03-08T08:27:54.017Z,41.70
2023-03-08T08:30:39.552Z,39.88
2023-03-08T08:33:25.165Z,41.60
2023-03-08T08:36:13.817Z,40.50
2023-03-08T08:38:59.314Z,38.67
2023-03-08T08:41:51.821Z,36.78
2023-03-08T08:44:37.541Z,38.03
2023-03-08T08:47:23.308Z,37.55
2023-03-08T08:50:09.312Z,34.83
2023-03-08T08:52:56.399Z,32.40
2023-03-08T08:55:43.962Z,30.65
2023-03-08T08:58:34.296Z,31.25
2023-03-08T09:01:28.825Z,30.38
2023-03-08T09:04:16.999Z,28.13
2023-03-08T09:07:02.450Z,26.00
2023-03-08T09:09:47.822Z,25.58
2023-03-08T09:12:33.337Z,27.02
2023-03-08T09:15:19.053Z,24.48
2023-03-08T09:18:04.539Z,23.50
2023-03-08T09:20:49.867Z,21.38
2023-03-08T09:23:38.449Z,20.48
2023-03-08T09:26:24.040Z,20.27
2023-03-08T09:29:10.927Z,17.95
2023-03-08T09:31:58.340Z,18.65
2023-03-08T09:34:44.491Z,16.63
2023-03-08T09:37:29.903Z,18.80
2023-03-08T09:40:21.500Z,18.52
2023-03-08T09:43:20.744Z,17.58
2023-03-08T09:46:09.035Z,17.75
2023-03-08T09:49:00.979Z,18.38
2023-03-08T09:51:54.330Z,17.02
2023-03-08T09:54:41.044Z,18.25
2023-03-08T09:57:33.344Z,17.83
2023-03-08T10:00:34.990Z,16.38
2023-03-08T10:03:26.451Z,14.15
2023-03-08T10:06:13.261Z,14.48
2023-03-08T10:09:32.216Z,13.77
2023-03-08T10:12:48.970Z,11.98
2023-03-08T10:15:40.819Z,11.93
2023-03-08T10:18:55.278Z,12.02
2023-03-08T10:21:43.212Z,12.68
2023-03-08T10:24:37.041Z,11.60
2023-03-08T10:27:28.350Z,11.00
2023-03-08T10:30:17.368Z,11.90
2023-03-08T10:33:08.117Z,12.38
2023-03-08T10:36:22.150Z,11.63
2023-03-08T10:39:11.388Z,12.68
2023-03-08T10:42:06.191Z,12.10
2023-03-08T10:45:03.933Z,12.88
2023-03-08T10:48:04.212Z,11.93
2023-03-08T10:50:59.949Z,11.80
2023-03-08T10:54:06.577Z,11.00
2023-03-08T10:56:59.004Z,11.35
2023-03-08T10:59:49.798Z,11.13
2023-03-08T11:02:35.254Z,10.02
2023-03-08T11:05:23.722Z,10.40
2023-03-08T11:08:21.888Z,9.68
2023-03-08T11:11:11.586Z,10.85
2023-03-08T11:13:56.995Z,9.65
2023-03-08T11:16:57.405Z,11.50
2023-03-08T11:19:51.025Z,10.77
2023-03-08T11:22:51.523Z,10.07
2023-03-08T11:26:02.758Z,11.07
2023-03-08T11:29:10.435Z,11.55
2023-03-08T11:32:05.151Z,11.35
2023-03-08T11:35:04.860Z,12.25
2023-03-08T11:38:08.909Z,12.00
2023-03-08T11:41:42.469Z,10.80
2023-03-08T11:44:54.749Z,10.63
2023-03-08T11:47:46.116Z,10.00
2023-03-08T11:50:45.904Z,10.05
2023-03-08T11:53:43.959Z,10.05
2023-03-08T11:56:56.947Z,10.30
2023-03-08T11:59:47.827Z,10.88
2023-03-08T12:02:38.920Z,11.02
2023-03-08T12:05:31.674Z,11.32
2023-03-08T12:08:35.794Z,11.30
2023-03-08T12:11:36.917Z,12.00
2023-03-08T12:14:34.037Z,11.43
2023-03-08T12:17:28.838Z,11.90
2023-03-08T12:20:16.018Z,11.80
2023-03-08T12:23:35.365Z,11.65
2023-03-08T12:26:41.960Z,11.57
2023-03-08T12:29:46.108Z,11.98
2023-03-08T12:32:32.877Z,13.65
2023-03-08T12:35:24.641Z,13.93
2023-03-08T12:38:19.248Z,14.00
2023-03-08T12:41:07.488Z,13.95
2023-03-08T12:44:03.960Z,13.32
2023-03-08T12:47:02.161Z,14.55
2023-03-08T12:49:56.748Z,14.38
2023-03-08T12:52:42.686Z,13.70
2023-03-08T12:55:33.347Z,13.50
2023-03-08T12:58:19.021Z,14.13
2023-03-08T13:01:27.668Z,13.52
2023-03-08T13:04:39.811Z,15.20
2023-03-08T13:07:40.131Z,13.82
2023-03-08T13:10:53.652Z,14.80
2023-03-08T13:13:54.300Z,15.43
2023-03-08T13:16:40.164Z,14.93
2023-03-08T13:19:28.772Z,15.45
2023-03-08T13:22:38.145Z,14.75
2023-03-08T13:25:35.314Z,15.18
2023-03-08T13:28:24.175Z,15.57
2023-03-08T13:31:22.137Z,15.05
2023-03-08T13:34:27.981Z,16.05
2023-03-08T13:40:16.981Z,15.80
2023-03-08T13:43:08.673Z,15.30
2023-03-08T13:45:57.910Z,15.63
2023-03-08T13:48:45.421Z,13.85
2023-03-08T13:51:31.216Z,15.10
2023-03-08T13:54:26.724Z,14.00
2023-03-08T14:00:36.953Z,14.05
2023-03-08T14:03:33.748Z,14.43
2023-03-08T14:06:31.228Z,14.10
2023-03-08T14:09:17.156Z,14.52
2023-03-08T14:12:05.376Z,14.60
2023-03-08T14:15:00.282Z,15.43
2023-03-08T14:17:45.761Z,15.30
2023-03-08T14:20:31.584Z,15.10
2023-03-08T14:23:24.312Z,14.95
2023-03-08T14:26:27.801Z,16.10
2023-03-08T14:29:22.251Z,14.60
2023-03-08T14:32:10.705Z,15.30
2023-03-08T14:35:09.135Z,16.13
2023-03-08T14:37:56.235Z,14.93
2023-03-08T14:40:49.387Z,15.00
2023-03-08T14:43:35.507Z,16.17
2023-03-08T14:46:23.009Z,16.55
2023-03-08T14:49:21.210Z,16.70
2023-03-08T14:52:20.042Z,20.13
2023-03-08T14:55:24.556Z,18.90
2023-03-08T14:58:13.658Z,18.60
2023-03-08T15:01:03.583Z,19.77
2023-03-08T15:03:48.992Z,19.80
2023-03-08T15:06:36.245Z,21.17
2023-03-08T15:09:22.977Z,22.08
2023-03-08T15:12:10.192Z,20.77
2023-03-08T15:14:55.653Z,20.20
2023-03-08T15:17:41.415Z,20.73
2023-03-08T15:20:27.016Z,21.52
2023-03-08T15:23:24.349Z,23.60
2023-03-08T15:26:16.120Z,22.48
2023-03-08T15:29:03.588Z,23.45
2023-03-08T15:31:59.153Z,22.00
2023-03-08T15:34:47.365Z,22.77
2023-03-08T15:37:32.886Z,23.10
2023-03-08T15:40:28.958Z,23.50
2023-03-08T15:43:17.514Z,22.90
2023-03-08T15:46:03.236Z,26.05
2023-03-08T15:48:50.869Z,24.20
2023-03-08T15:51:37.368Z,25.77
2023-03-08T15:54:22.886Z,26.55
2023-03-08T15:57:08.644Z,24.98
2023-03-08T15:59:54.071Z,24.95
2023-03-08T16:02:40.271Z,25.83
2023-03-08T16:05:26.734Z,27.42
2023-03-08T16:08:15.428Z,25.67
2023-03-08T16:11:07.052Z,26.92
2023-03-08T16:13:53.340Z,26.70
2023-03-08T16:16:45.732Z,26.25
2023-03-08T16:19:39.848Z,25.75
2023-03-08T16:22:28.007Z,23.88
2023-03-08T16:25:14.361Z,23.92
2023-03-08T16:28:02.463Z,26.35
2023-03-08T16:30:47.649Z,24.55
2023-03-08T16:33:33.333Z,27.95
2023-03-08T16:36:18.716Z,25.67
2023-03-08T16:39:08.020Z,25.15
2023-03-08T16:41:54.178Z,25.45
2023-03-08T16:44:51.971Z,25.10
2023-03-08T16:53:10.065Z,18.45
2023-03-08T16:55:55.431Z,21.17
2023-03-08T16:58:40.908Z,18.65
2023-03-08T17:01:26.997Z,19.98
2023-03-08T17:04:12.785Z,19.25
2023-03-08T17:07:01.131Z,19.27
2023-03-08T17:09:46.870Z,19.33
2023-03-08T17:12:32.151Z,21.67
2023-03-08T17:15:19.222Z,21.17
2023-03-08T17:18:04.821Z,20.65
2023-03-08T17:20:51.446Z,21.33
2023-03-08T17:23:37.025Z,21.55
2023-03-08T17:26:23.685Z,21.52
2023-03-08T17:29:09.004Z,21.25
2023-03-08T17:31:54.486Z,21.17
2023-03-08T17:34:40.086Z,21.65
2023-03-08T17:37:25.425Z,21.23
2023-03-08T17:40:12.612Z,21.45
2023-03-08T17:43:00.126Z,21.77
2023-03-08T17:45:48.625Z,22.17
2023-03-08T17:48:35.382Z,23.52
2023-03-08T17:51:24.474Z,23.63
2023-03-08T17:54:11.737Z,23.30
2023-03-08T17:56:57.380Z,23.30
2023-03-08T17:59:43.026Z,25.00
2023-03-08T18:02:28.295Z,25.40
2023-03-08T18:05:13.780Z,24.40
2023-03-08T18:08:00.763Z,25.23
2023-03-08T18:10:46.247Z,26.67
2023-03-08T18:13:35.241Z,25.35
2023-03-08T18:16:21.977Z,25.20
2023-03-08T18:19:07.416Z,25.63
2023-03-08T18:21:57.441Z,26.50
2023-03-08T18:24:43.044Z,25.13
2023-03-08T18:27:28.467Z,26.08
2023-03-08T18:30:14.198Z,28.13
2023-03-08T18:33:02.436Z,28.73
2023-03-08T18:35:56.084Z,27.40
2023-03-08T18:38:44.616Z,27.45
2023-03-08T18:41:33.933Z,28.98
2023-03-08T18:44:19.479Z,29.27
2023-03-08T18:47:05.211Z,29.98
2023-03-08T18:49:50.947Z,30.77
2023-03-08T18:52:36.459Z,28.88
2023-03-08T18:55:22.234Z,28.85
2023-03-08T18:58:08.133Z,30.15
2023-03-08T19:00:57.082Z,28.92
2023-03-08T19:03:44.190Z,31.17
2023-03-08T19:06:30.053Z,31.45
2023-03-08T19:09:17.363Z,33.17
2023-03-08T19:12:03.171Z,30.75
2023-03-08T19:14:48.960Z,32.05
2023-03-08T19:17:34.526Z,28.42
2023-03-08T19:20:22.568Z,28.40
2023-03-08T19:23:09.706Z,26.23
2023-03-08T19:26:13.852Z,26.63
2023-03-08T19:29:03.194Z,26.73
2023-03-08T19:31:53.368Z,26.58
2023-03-08T19:34:42.373Z,25.08
2023-03-08T19:37:27.970Z,26.52
2023-03-08T19:40:13.853Z,26.15
2023-03-08T19:43:00.892Z,25.83
2023-03-08T19:45:51.719Z,27.85
2023-03-08T19:48:40.952Z,30.38
2023-03-08T19:51:30.125Z,30.00
2023-03-08T19:54:15.561Z,29.20
2023-03-08T19:57:04.941Z,31.75
2023-03-08T19:59:53.207Z,31.70
2023-03-08T20:02:40.604Z,33.13
2023-03-08T20:05:27.352Z,32.17
2023-03-08T20:08:13.739Z,30.85
2023-03-08T20:10:59.798Z,32.72
2023-03-08T20:13:45.363Z,32.40
2023-03-08T20:16:34.707Z,33.15
2023-03-08T20:19:23.108Z,35.20
2023-03-08T20:22:08.812Z,34.60
2023-03-08T20:24:54.035Z,37.80
2023-03-08T20:27:48.805Z,37.60
2023-03-08T20:30:34.411Z,36.90
2023-03-08T20:33:20.294Z,35.75
2023-03-08T20:36:06.784Z,37.05
2023-03-08T20:38:52.482Z,38.65
2023-03-08T20:41:37.808Z,39.15
2023-03-08T20:44:23.419Z,37.20
2023-03-08T20:47:08.657Z,37.22
2023-03-08T20:49:54.819Z,37.67
2023-03-08T20:52:40.451Z,37.33
2023-03-08T20:55:25.916Z,35.38
2023-03-08T20:58:11.906Z,37.20
2023-03-08T21:00:57.602Z,34.00
2023-03-08T21:03:43.891Z,33.67
2023-03-08T21:06:31.837Z,32.65
2023-03-08T21:09:17.547Z,33.20
2023-03-08T21:12:04.670Z,32.78
2023-03-08T21:14:54.059Z,31.77
2023-03-08T21:17:42.284Z,31.02
2023-03-08T21:20:27.893Z,29.63
2023-03-08T21:23:13.208Z,28.92
2023-03-08T21:26:00.501Z,27.83
2023-03-08T21:28:45.958Z,27.95
2023-03-08T21:31:34.095Z,28.52
2023-03-08T21:34:20.486Z,28.00
2023-03-08T21:37:05.972Z,28.33
2023-03-08T21:39:51.492Z,27.85
2023-03-08T21:42:39.249Z,28.90
2023-03-08T21:45:24.470Z,29.02
2023-03-08T21:48:10.311Z,31.05
2023-03-08T21:50:57.111Z,29.45
2023-03-08T21:53:45.990Z,29.23
2023-03-08T21:56:34.148Z,29.73
2023-03-08T21:59:26.832Z,29.92
2023-03-08T22:02:12.522Z,29.30
2023-03-08T22:04:57.765Z,31.65
2023-03-08T22:07:43.268Z,31.83
2023-03-08T22:10:31.382Z,30.38
2023-03-08T22:13:17.077Z,32.13
2023-03-08T22:16:02.607Z,30.20
2023-03-08T22:18:48.215Z,29.60
2023-03-08T22:21:33.877Z,30.38
2023-03-08T22:24:19.332Z,31.52
2023-03-08T22:27:05.174Z,31.48
2023-03-08T22:29:57.735Z,30.55
2023-03-08T22:32:43.480Z,31.45
2023-03-08T22:35:29.324Z,31.13
2023-03-08T22:38:15.167Z,32.33
2023-03-08T22:41:00.717Z,33.78
2023-03-08T22:43:46.460Z,36.10
2023-03-08T22:46:32.055Z,36.92
2023-03-08T22:49:17.638Z,36.88
2023-03-08T22:52:03.343Z,37.55
2023-03-08T22:54:48.683Z,37.28
2023-03-08T22:57:37.443Z,37.08
2023-03-08T23:00:26.557Z,36.38
2023-03-08T23:03:12.183Z,35.65
2023-03-08T23:05:57.948Z,36.92
2023-03-08T23:08:46.933Z,34.63
2023-03-08T23:11:38.028Z,35.40
2023-03-08T23:14:23.799Z,36.38
2023-03-08T23:17:09.363Z,35.10
2023-03-08T23:19:54.844Z,34.00
2023-03-08T23:22:40.511Z,33.72
2023-03-08T23:25:26.173Z,33.53
2023-03-08T23:28:11.838Z,32.20
2023-03-08T23:30:57.175Z,31.95
2023-03-08T23:33:43.191Z,34.10
2023-03-08T23:36:33.708Z,31.58
2023-03-08T23:39:18.929Z,32.72
2023-03-08T23:42:05.940Z,32.60
2023-03-08T23:44:51.722Z,30.35
2023-03-08T23:47:37.548Z,33.58
2023-03-08T23:50:22.893Z,31.77
2023-03-08T23:53:08.212Z,30.40
2023-03-08T23:55:53.449Z,30.55
2023-03-08T23:58:38.961Z,29.40
